createdAt,value
2017-07-26T00:00:21.611Z,"    0"
2017-07-26T00:05:18.714Z,"    0"
2017-07-26T00:10:14.494Z,"    0"
2017-07-26T00:15:10.379Z,"    0"
2017-07-26T00:20:06.395Z,"    0"
2017-07-26T00:25:02.385Z,"    0"
2017-07-26T00:29:58.732Z,"    0"
2017-07-26T00:34:54.590Z,"    0"
2017-07-26T00:39:51.432Z,"    0"
2017-07-26T00:44:47.118Z,"    0"
2017-07-26T00:49:43.997Z,"    0"
2017-07-26T00:54:40.100Z,"    0"
2017-07-26T00:59:36.512Z,"    0"
2017-07-26T01:04:32.695Z,"    0"
2017-07-26T01:09:28.570Z,"    0"
2017-07-26T01:14:24.679Z,"    0"
2017-07-26T01:19:20.730Z,"    0"
2017-07-26T01:24:16.227Z,"    0"
2017-07-26T01:29:12.344Z,"    0"
2017-07-26T01:34:09.369Z,"    0"
2017-07-26T01:39:05.053Z,"    0"
2017-07-26T01:49:02.043Z,"    0"
2017-07-26T01:53:57.880Z,"    0"
2017-07-26T01:58:53.408Z,"    0"
2017-07-26T02:03:49.677Z,"    0"
2017-07-26T02:08:45.553Z,"    0"
2017-07-26T02:13:42.510Z,"    0"
2017-07-26T02:18:39.072Z,"    0"
2017-07-26T02:23:35.831Z,"    0"
2017-07-26T02:28:32.415Z,"    0"
2017-07-26T02:33:30.897Z,"    0"
2017-07-26T02:38:26.513Z,"    0"
2017-07-26T02:43:27.471Z,"    0"
2017-07-26T02:48:23.287Z,"    0"
2017-07-26T02:53:19.008Z,"    0"
2017-07-26T02:58:14.810Z,"    0"
2017-07-26T03:03:10.925Z,"    0"
2017-07-26T03:08:06.823Z,"    0"
2017-07-26T03:13:02.915Z,"    4"
2017-07-26T03:17:58.754Z,"    4"
2017-07-26T03:22:55.833Z,"    8"
2017-07-26T03:27:51.262Z,"   16"
2017-07-26T03:32:47.227Z,"   36"
2017-07-26T03:37:44.598Z,"   60"
2017-07-26T03:42:39.895Z,"   96"
2017-07-26T03:47:36.758Z,"  132"
2017-07-26T03:52:32.408Z,"  180"
2017-07-26T03:57:29.388Z,"  236"
2017-07-26T04:02:26.145Z,"  304"
2017-07-26T04:07:21.819Z,"  392"
2017-07-26T04:12:17.733Z,"  512"
2017-07-26T04:17:13.920Z,"  656"
2017-07-26T04:22:09.894Z,"  848"
2017-07-26T04:27:05.844Z,"  832"
2017-07-26T04:32:03.087Z,"  844"
2017-07-26T04:36:58.901Z,"  896"
2017-07-26T04:41:55.631Z," 1236"
2017-07-26T04:46:52.558Z," 1664"
2017-07-26T04:51:48.177Z," 1780"
2017-07-26T04:56:45.398Z," 1864"
2017-07-26T05:01:42.816Z," 1844"
2017-07-26T05:06:38.492Z," 1392"
2017-07-26T05:11:35.577Z," 1312"
2017-07-26T05:16:31.273Z," 1148"
2017-07-26T05:21:27.375Z," 1100"
2017-07-26T05:26:23.167Z," 1544"
2017-07-26T05:31:20.416Z," 1640"
2017-07-26T05:36:16.112Z," 1412"
2017-07-26T05:41:13.082Z," 1996"
2017-07-26T05:46:09.777Z," 4056"
2017-07-26T05:51:06.041Z," 4372"
2017-07-26T05:56:02.168Z," 5148"
2017-07-26T06:00:59.440Z," 7164"
2017-07-26T06:05:55.586Z," 6692"
2017-07-26T06:10:52.814Z," 6796"
2017-07-26T06:15:49.632Z," 8428"
2017-07-26T06:20:46.651Z," 5616"
2017-07-26T06:25:42.179Z," 8640"
2017-07-26T06:30:38.509Z," 6712"
2017-07-26T06:35:35.303Z," 9308"
2017-07-26T06:40:31.325Z," 8164"
2017-07-26T06:45:28.483Z," 8748"
2017-07-26T06:50:24.427Z," 7420"
2017-07-26T06:55:21.110Z," 6024"
2017-07-26T07:00:19.182Z," 5096"
2017-07-26T07:05:14.340Z," 7528"
2017-07-26T07:10:10.036Z," 5784"
2017-07-26T07:15:06.255Z," 5880"
2017-07-26T07:20:02.023Z," 5540"
2017-07-26T07:24:58.193Z," 7264"
2017-07-26T07:29:54.425Z," 6308"
2017-07-26T07:34:52.304Z," 5860"
2017-07-26T07:39:48.681Z," 5844"
2017-07-26T07:44:44.468Z," 5304"
2017-07-26T07:49:42.352Z," 6576"
2017-07-26T07:54:38.574Z,16012
2017-07-26T07:59:36.090Z,54240
2017-07-26T08:04:33.461Z,14260
2017-07-26T08:09:31.430Z,66784
2017-07-26T08:14:29.628Z,71008
2017-07-26T08:19:27.902Z,59296
2017-07-26T08:24:26.589Z,76672
2017-07-26T08:29:23.570Z,66624
2017-07-26T08:34:20.267Z," 7628"
2017-07-26T08:39:17.699Z,64800
2017-07-26T08:44:13.550Z,75040
2017-07-26T08:49:11.105Z,44864
2017-07-26T08:54:07.714Z,71072
2017-07-26T08:59:04.663Z,68128
2017-07-26T09:04:02.580Z,20512
2017-07-26T09:08:57.271Z,57952
2017-07-26T09:13:55.720Z,45600
2017-07-26T09:18:51.035Z,75552
2017-07-26T09:23:47.581Z,10476
2017-07-26T09:28:43.803Z,77568
2017-07-26T09:33:40.596Z,62912
2017-07-26T09:38:37.333Z,14644
2017-07-26T09:43:32.593Z," 7712"
2017-07-26T09:48:27.846Z,12212
2017-07-26T09:53:24.712Z,77152
2017-07-26T09:58:22.022Z,73952
2017-07-26T10:03:18.641Z,84352
2017-07-26T10:08:15.596Z,81536
2017-07-26T10:13:12.050Z," 9592"
2017-07-26T10:18:05.738Z,13280
2017-07-26T10:23:00.672Z,82752
2017-07-26T10:27:59.468Z,88704
2017-07-26T10:32:56.974Z,91904
2017-07-26T10:37:53.947Z,99712
2017-07-26T10:42:51.072Z,30720
2017-07-26T10:47:44.917Z," 6636"
2017-07-26T10:52:38.934Z,21088
2017-07-26T10:57:33.412Z,12172
2017-07-26T11:02:32.448Z,69792
2017-07-26T11:07:30.877Z,30912
2017-07-26T11:12:27.515Z,68864
2017-07-26T11:17:25.404Z,90944
2017-07-26T11:22:22.133Z,77856
2017-07-26T11:27:21.186Z,94720
2017-07-26T11:32:19.406Z,103424
2017-07-26T11:37:16.743Z,104064
2017-07-26T11:42:14.918Z,104864
2017-07-26T11:52:09.632Z,94720
2017-07-26T11:57:07.412Z,20928
2017-07-26T12:02:06.310Z,63488
2017-07-26T12:07:02.927Z,88352
2017-07-26T12:12:00.212Z,91520
2017-07-26T12:16:57.416Z,92064
2017-07-26T12:21:54.280Z,111232
2017-07-26T12:26:50.144Z,52256
2017-07-26T12:31:43.952Z,67840
2017-07-26T12:36:43.147Z,71424
2017-07-26T12:41:39.381Z,53856
2017-07-26T12:46:36.494Z,72480
2017-07-26T12:51:32.561Z,93600
2017-07-26T12:56:28.748Z,114176
2017-07-26T13:01:24.972Z,117536
2017-07-26T13:06:20.849Z,104064
2017-07-26T13:11:17.697Z,80512
2017-07-26T13:16:12.320Z,61568
2017-07-26T13:21:09.698Z,60960
2017-07-26T13:26:05.785Z,58944
2017-07-26T13:31:01.355Z,80672
2017-07-26T13:35:57.382Z,70880
2017-07-26T13:40:53.879Z,83392
2017-07-26T13:45:49.412Z,76224
2017-07-26T13:50:46.192Z,74304
2017-07-26T13:55:41.508Z,56224
2017-07-26T14:00:37.292Z,50624
2017-07-26T14:05:33.303Z," 8460"
2017-07-26T14:10:28.323Z,30752
2017-07-26T14:15:24.941Z,10300
2017-07-26T14:20:20.570Z," 7440"
2017-07-26T14:25:15.710Z," 6604"
2017-07-26T14:30:11.141Z," 8080"
2017-07-26T14:35:07.000Z," 7440"
2017-07-26T14:40:04.912Z," 7132"
2017-07-26T14:45:01.057Z," 5884"
2017-07-26T14:49:57.909Z," 6588"
2017-07-26T14:54:54.068Z," 6584"
2017-07-26T14:59:51.078Z," 6360"
2017-07-26T15:04:47.784Z," 4912"
2017-07-26T15:09:43.440Z," 4904"
2017-07-26T15:14:39.134Z," 5140"
2017-07-26T15:19:37.295Z," 5012"
2017-07-26T15:24:32.747Z," 5152"
2017-07-26T15:29:29.831Z," 4700"
2017-07-26T15:34:25.454Z," 4044"
2017-07-26T15:39:21.202Z," 5596"
2017-07-26T15:44:17.153Z," 4588"
2017-07-26T15:49:14.320Z," 6280"
2017-07-26T15:54:13.194Z," 5060"
2017-07-26T15:59:08.879Z," 5520"
2017-07-26T16:04:06.081Z," 3532"
2017-07-26T16:09:01.669Z," 4032"
2017-07-26T16:19:00.960Z," 4784"
2017-07-26T16:23:58.493Z," 3900"
2017-07-26T16:28:56.256Z," 3412"
2017-07-26T16:33:51.759Z," 3008"
2017-07-26T16:43:48.090Z," 3856"
2017-07-26T16:48:43.958Z," 2852"
2017-07-26T16:53:40.288Z," 2636"
2017-07-26T16:58:36.404Z," 3116"
2017-07-26T17:03:34.378Z," 2620"
2017-07-26T17:08:33.080Z," 2736"
2017-07-26T17:13:29.240Z," 3028"
2017-07-26T17:18:27.158Z," 2376"
2017-07-26T17:23:22.563Z," 2140"
2017-07-26T17:28:18.432Z," 2176"
2017-07-26T17:33:15.319Z," 2204"
2017-07-26T17:38:12.067Z," 2424"
2017-07-26T17:43:07.823Z," 1984"
2017-07-26T17:48:03.935Z," 1872"
2017-07-26T17:53:00.202Z," 1844"
2017-07-26T17:57:56.942Z," 1720"
2017-07-26T18:02:55.025Z," 1488"
2017-07-26T18:07:50.332Z," 1264"
2017-07-26T18:12:46.052Z," 1140"
2017-07-26T18:17:42.153Z," 1080"
2017-07-26T18:22:39.137Z," 1056"
2017-07-26T18:27:34.874Z,"  948"
2017-07-26T18:32:31.513Z,"  864"
2017-07-26T18:37:29.695Z,"  676"
2017-07-26T18:42:26.326Z,"  600"
2017-07-26T18:47:21.935Z,"  500"
2017-07-26T18:52:17.682Z,"  436"
2017-07-26T18:57:13.675Z,"  440"
2017-07-26T19:07:11.349Z,"  308"
2017-07-26T19:12:08.045Z,"  240"
2017-07-26T19:17:03.875Z,"  212"
2017-07-26T19:22:00.491Z,"  168"
2017-07-26T19:26:58.275Z,"  124"
2017-07-26T19:31:53.382Z,"   84"
2017-07-26T19:36:49.582Z,"   56"
2017-07-26T19:41:46.461Z,"   36"
2017-07-26T19:46:42.312Z,"   16"
2017-07-26T19:51:38.366Z,"    8"
2017-07-26T19:56:34.583Z,"    4"
2017-07-26T20:01:31.698Z,"    4"
2017-07-26T20:06:28.150Z,"    0"
2017-07-26T20:11:24.170Z,"    0"
2017-07-26T20:16:20.465Z,"    0"
2017-07-26T20:21:17.456Z,"    0"
2017-07-26T20:26:14.394Z,"    0"
2017-07-26T20:31:10.213Z,"    0"
2017-07-26T20:36:05.995Z,"    0"
2017-07-26T20:41:02.064Z,"    0"
2017-07-26T20:45:59.467Z,"    0"
2017-07-26T20:50:54.916Z,"    0"
2017-07-26T20:55:51.094Z,"    0"
2017-07-26T21:00:48.258Z,"    0"
2017-07-26T21:05:43.679Z,"    0"
2017-07-26T21:10:39.421Z,"    0"
2017-07-26T21:15:35.795Z,"    0"
2017-07-26T21:20:32.002Z,"    0"
2017-07-26T21:25:29.281Z,"    0"
2017-07-26T21:30:26.065Z,"    0"
2017-07-26T21:35:22.620Z,"    0"
2017-07-26T21:40:23.577Z,"    0"
2017-07-26T21:45:19.246Z,"    0"
2017-07-26T21:50:15.523Z,"    0"
2017-07-26T21:55:11.420Z,"    0"
2017-07-26T22:00:07.305Z,"    0"
2017-07-26T22:05:04.287Z,"    0"
2017-07-26T22:10:01.143Z,"    0"
2017-07-26T22:14:56.904Z,"    0"
2017-07-26T22:19:54.180Z,"    0"
2017-07-26T22:24:49.861Z,"    0"
2017-07-26T22:29:46.599Z,"    0"
2017-07-26T22:34:42.973Z,"    0"
2017-07-26T22:39:40.216Z,"    0"
2017-07-26T22:44:37.382Z,"    0"
2017-07-26T22:49:34.037Z,"    0"
2017-07-26T22:54:30.325Z,"    0"
2017-07-26T22:59:27.988Z,"    0"
2017-07-26T23:04:24.631Z,"    0"
2017-07-26T23:14:21.862Z,"    0"
2017-07-26T23:19:19.489Z,"    0"
2017-07-26T23:24:17.125Z,"    0"
2017-07-26T23:29:13.002Z,"    0"
2017-07-26T23:34:10.682Z,"    0"
2017-07-26T23:39:07.376Z,"    0"
2017-07-26T23:44:10.359Z,"    0"
2017-07-26T23:49:12.265Z,"    0"
2017-07-26T23:54:07.816Z,"    0"
2017-07-26T23:59:03.707Z,"    0"
